createdAt,value
2022-09-03T00:03:29.011Z,13.27
2022-09-03T00:08:40.865Z,15.28
2022-09-03T00:13:52.452Z,15.16
2022-09-03T00:19:02.945Z,14.00
2022-09-03T00:24:15.220Z,16.04
2022-09-03T00:29:26.715Z,18.06
2022-09-03T00:34:39.353Z,17.96
2022-09-03T00:39:46.269Z,-40.48
2022-09-03T00:45:09.419Z,14.55
2022-09-03T00:50:26.105Z,12.29
2022-09-03T00:55:47.636Z,-50.87
2022-09-03T01:00:55.032Z,-41.13
2022-09-03T01:06:15.673Z,20.41
2022-09-03T01:11:33.542Z,20.31
2022-09-03T01:16:47.927Z,20.20
2022-09-03T01:22:20.975Z,13.77
2022-09-03T01:27:40.134Z,11.52
2022-09-03T01:32:55.350Z,11.40
2022-09-03T01:38:15.252Z,13.45
2022-09-03T01:43:44.696Z,19.72
2022-09-03T01:49:02.998Z,21.74
2022-09-03T01:54:36.682Z,19.52
2022-09-03T01:59:49.559Z,10.99
2022-09-03T02:05:08.008Z,10.88
2022-09-03T02:10:17.713Z,10.79
2022-09-03T02:15:27.025Z,10.71
2022-09-03T02:20:34.289Z,14.87
2022-09-03T02:25:46.329Z,16.92
2022-09-03T02:30:55.469Z,19.99
2022-09-03T02:36:02.951Z,10.42
2022-09-03T02:41:09.899Z,10.31
2022-09-03T02:46:22.517Z,14.68
2022-09-03T02:51:33.106Z,16.44
2022-09-03T02:56:40.102Z,16.64
2022-09-03T03:01:47.012Z,16.56
2022-09-03T03:06:53.944Z,21.50
2022-09-03T03:12:00.736Z,21.72
2022-09-03T03:17:07.972Z,20.85
2022-09-03T03:22:14.712Z,16.07
2022-09-03T03:27:21.814Z,15.92
2022-09-03T03:32:29.312Z,20.01
2022-09-03T03:37:36.849Z,17.80
2022-09-03T03:42:44.040Z,11.39
2022-09-03T03:47:50.955Z,19.73
2022-09-03T03:53:00.116Z,17.55
2022-09-03T03:58:07.007Z,19.64
2022-09-03T04:03:13.854Z,19.58
2022-09-03T04:08:20.644Z,19.53
2022-09-03T04:13:29.730Z,19.51
2022-09-03T04:18:37.694Z,19.49
2022-09-03T04:23:46.314Z,19.53
2022-09-03T04:28:53.416Z,-39.52
2022-09-03T04:34:00.661Z,13.15
2022-09-03T04:39:07.566Z,11.03
2022-09-03T04:44:14.297Z,19.46
2022-09-03T04:49:21.710Z,19.48
2022-09-03T04:54:29.635Z,20.13
2022-09-03T04:59:37.129Z,19.64
2022-09-03T05:04:43.911Z,-68.93
2022-09-03T05:09:50.663Z,-128.00
2022-09-03T05:14:57.420Z,-128.00
2022-09-03T05:20:04.727Z,-128.00
2022-09-03T05:25:12.116Z,-128.00
2022-09-03T05:30:19.479Z,-128.00
2022-09-03T05:35:30.154Z,-128.00
2022-09-03T05:40:37.252Z,-128.00
2022-09-03T05:45:44.138Z,-128.00
2022-09-03T05:50:51.096Z,-128.00
2022-09-03T05:56:01.652Z,-128.00
2022-09-03T06:01:15.438Z,-128.00
2022-09-03T06:06:25.951Z,-128.00
2022-09-03T06:11:34.864Z,-128.00
2022-09-03T06:16:45.518Z,-128.00
2022-09-03T06:21:52.415Z,-128.00
2022-09-03T06:26:59.529Z,-128.00
2022-09-03T06:32:07.143Z,-100.21
2022-09-03T06:37:13.995Z,12.09
2022-09-03T06:42:22.949Z,12.26
2022-09-03T06:47:32.767Z,-43.75
2022-09-03T06:52:40.991Z,-128.00
2022-09-03T06:57:47.727Z,-128.00
2022-09-03T07:03:00.648Z,-128.00
2022-09-03T07:08:08.066Z,-128.00
2022-09-03T07:13:15.026Z,-128.00
2022-09-03T07:18:21.966Z,-128.00
2022-09-03T07:23:38.188Z,-128.00
2022-09-03T07:28:47.139Z,-128.00
2022-09-03T07:33:55.658Z,-128.00
2022-09-03T07:39:04.003Z,-128.00
2022-09-03T07:44:11.015Z,-128.00
2022-09-03T07:49:18.176Z,-128.00
2022-09-03T07:54:27.499Z,-42.38
2022-09-03T07:59:34.556Z,15.88
2022-09-03T08:04:41.419Z,16.00
2022-09-03T08:09:52.424Z,16.15
2022-09-03T08:15:01.985Z,16.32
2022-09-03T08:20:10.627Z,16.53
2022-09-03T08:25:17.878Z,16.75
2022-09-03T08:30:25.423Z,16.94
2022-09-03T08:35:34.885Z,17.07
2022-09-03T08:40:43.427Z,17.30
2022-09-03T08:45:50.706Z,17.55
2022-09-03T08:51:04.736Z,17.74
2022-09-03T08:56:20.831Z,18.00
2022-09-03T09:01:55.227Z,18.22
2022-09-03T09:07:12.275Z,18.49
2022-09-03T09:12:37.586Z,-98.67
2022-09-03T09:18:06.231Z,-128.00
2022-09-03T09:23:17.268Z,-128.00
2022-09-03T09:28:26.615Z,-128.00
2022-09-03T09:33:35.544Z,-128.00
2022-09-03T09:38:43.354Z,-128.00
2022-09-03T09:44:01.706Z,-128.00
2022-09-03T09:49:31.360Z,-128.00
2022-09-03T09:54:38.640Z,-128.00
2022-09-03T09:59:45.943Z,-128.00
2022-09-03T10:04:53.063Z,-128.00
2022-09-03T10:10:09.260Z,-128.00
2022-09-03T10:15:25.095Z,-128.00
2022-09-03T10:20:42.197Z,-128.00
2022-09-03T10:26:04.729Z,-128.00
2022-09-03T10:31:32.049Z,-128.00
2022-09-03T10:36:45.551Z,-128.00
2022-09-03T10:42:06.757Z,-128.00
2022-09-03T10:47:30.287Z,-128.00
2022-09-03T10:52:50.068Z,-128.00
2022-09-03T10:58:12.402Z,-128.00
2022-09-03T11:03:45.734Z,-128.00
2022-09-03T11:09:05.813Z,-128.00
2022-09-03T11:14:19.135Z,-128.00
2022-09-03T11:19:34.263Z,-128.00
2022-09-03T11:24:42.930Z,-128.00
2022-09-03T11:29:55.407Z,-128.00
2022-09-03T11:35:19.394Z,-128.00
2022-09-03T11:40:38.114Z,-128.00
2022-09-03T11:45:45.372Z,-128.00
2022-09-03T11:50:58.642Z,-128.00
2022-09-03T11:56:20.235Z,-128.00
2022-09-03T12:01:30.084Z,-128.00
2022-09-03T12:06:51.904Z,-128.00
2022-09-03T12:12:10.826Z,-128.00
2022-09-03T12:17:25.085Z,-128.00
2022-09-03T12:22:39.572Z,-128.00
2022-09-03T12:27:49.458Z,-128.00
2022-09-03T12:33:06.888Z,-128.00
2022-09-03T12:38:24.157Z,-128.00
2022-09-03T12:43:41.147Z,-128.00
2022-09-03T12:54:32.468Z,-128.00
2022-09-03T12:59:41.019Z,-128.00
2022-09-03T13:04:48.671Z,-128.00
2022-09-03T13:10:04.760Z,-128.00
2022-09-03T13:15:22.274Z,-128.00
2022-09-03T13:20:39.499Z,-128.00
2022-09-03T13:26:05.335Z,-128.00
2022-09-03T13:31:28.346Z,-128.00
2022-09-03T13:36:44.664Z,-128.00
2022-09-03T13:41:57.383Z,-128.00
2022-09-03T13:47:10.666Z,-128.00
2022-09-03T13:52:59.398Z,-128.00
2022-09-03T13:58:17.681Z,-128.00
2022-09-03T14:03:35.020Z,-128.00
2022-09-03T14:08:58.918Z,-128.00
2022-09-03T14:14:20.701Z,-128.00
2022-09-03T14:19:40.371Z,-128.00
2022-09-03T14:24:53.470Z,-128.00
2022-09-03T14:30:05.149Z,-128.00
2022-09-03T14:35:24.589Z,-128.00
2022-09-03T14:40:41.525Z,-128.00
2022-09-03T14:46:05.948Z,-128.00
2022-09-03T14:51:24.515Z,-128.00
2022-09-03T14:56:44.354Z,-128.00
2022-09-03T15:02:08.424Z,-128.00
2022-09-03T15:07:27.864Z,-128.00
2022-09-03T15:12:41.261Z,-128.00
2022-09-03T15:18:02.755Z,-128.00
2022-09-03T15:23:27.112Z,-128.00
2022-09-03T15:28:45.612Z,-128.00
2022-09-03T15:34:01.086Z,-128.00
2022-09-03T15:39:13.588Z,-128.00
2022-09-03T15:44:21.683Z,-128.00
2022-09-03T15:49:45.623Z,-128.00
2022-09-03T15:54:59.871Z,-66.64
2022-09-03T16:00:12.863Z,32.03
2022-09-03T16:05:28.978Z,31.94
2022-09-03T16:10:51.663Z,31.14
2022-09-03T16:16:05.340Z,31.15
2022-09-03T16:21:21.683Z,31.15
2022-09-03T16:26:33.618Z,30.84
2022-09-03T16:31:53.501Z,30.57
2022-09-03T16:37:15.843Z,30.37
2022-09-03T16:42:30.447Z,29.53
2022-09-03T16:47:49.668Z,28.24
2022-09-03T16:53:11.452Z,27.18
2022-09-03T16:58:26.915Z,26.34
2022-09-03T17:04:09.130Z,25.34
2022-09-03T17:09:33.801Z,24.39
2022-09-03T17:15:07.708Z,23.68
2022-09-03T17:20:21.134Z,22.90
2022-09-03T17:25:35.780Z,22.37
2022-09-03T17:30:50.267Z,21.93
2022-09-03T17:36:07.587Z,21.43
2022-09-03T17:41:32.351Z,20.93
2022-09-03T17:47:03.019Z,20.51
2022-09-03T17:52:27.341Z,20.17
2022-09-03T17:57:41.576Z,19.79
2022-09-03T18:02:57.253Z,19.43
2022-09-03T18:08:10.336Z,19.08
2022-09-03T18:13:26.197Z,18.72
2022-09-03T18:18:35.571Z,18.39
2022-09-03T18:24:08.776Z,18.05
2022-09-03T18:29:39.162Z,17.72
2022-09-03T18:35:05.173Z,17.39
2022-09-03T18:40:41.845Z,17.12
2022-09-03T18:47:47.444Z,16.89
2022-09-03T18:52:08.375Z,16.62
2022-09-03T18:57:40.427Z,16.42
2022-09-03T19:03:20.081Z,16.24
2022-09-03T19:08:51.104Z,16.04
2022-09-03T19:14:15.719Z,15.82
2022-09-03T19:19:57.878Z,15.60
2022-09-03T19:25:31.190Z,15.47
2022-09-03T19:31:21.813Z,15.38
2022-09-03T19:36:56.110Z,15.27
2022-09-03T19:42:28.900Z,15.20
2022-09-03T19:48:05.176Z,15.13
2022-09-03T19:53:32.589Z,15.03
2022-09-03T19:59:00.891Z,14.86
2022-09-03T20:04:33.028Z,14.72
2022-09-03T20:10:01.286Z,14.57
2022-09-03T20:15:09.951Z,14.46
2022-09-03T20:20:25.506Z,14.33
2022-09-03T20:25:43.062Z,14.21
2022-09-03T20:30:57.268Z,14.14
2022-09-03T20:36:15.032Z,14.05
2022-09-03T20:41:29.423Z,13.99
2022-09-03T20:46:48.075Z,13.89
2022-09-03T20:52:06.122Z,13.78
2022-09-03T20:57:33.445Z,13.66
2022-09-03T21:03:08.528Z,13.55
2022-09-03T21:08:39.572Z,13.47
2022-09-03T21:13:55.232Z,13.39
2022-09-03T21:19:12.600Z,13.32
2022-09-03T21:24:22.120Z,13.26
2022-09-03T21:29:33.109Z,13.19
2022-09-03T21:34:45.989Z,13.12
2022-09-03T21:39:56.145Z,13.04
2022-09-03T21:45:08.051Z,12.95
2022-09-03T21:50:21.203Z,12.88
2022-09-03T21:55:43.151Z,12.77
2022-09-03T22:00:56.061Z,12.64
2022-09-03T22:06:08.791Z,12.52
2022-09-03T22:11:17.702Z,12.39
2022-09-03T22:16:30.396Z,12.33
2022-09-03T22:21:44.523Z,12.27
2022-09-03T22:26:56.933Z,12.22
2022-09-03T22:32:13.204Z,12.17
2022-09-03T22:37:29.122Z,12.11
2022-09-03T22:42:51.265Z,12.07
2022-09-03T22:48:12.097Z,12.04
2022-09-03T22:53:22.963Z,12.01
2022-09-03T22:58:35.803Z,11.97
2022-09-03T23:03:51.751Z,11.94
2022-09-03T23:09:04.038Z,11.92
2022-09-03T23:14:14.187Z,11.90
2022-09-03T23:19:30.568Z,11.87
2022-09-03T23:24:41.797Z,11.84
2022-09-03T23:29:52.951Z,11.79
2022-09-03T23:35:01.441Z,11.76
2022-09-03T23:40:28.182Z,11.76
2022-09-03T23:45:46.089Z,11.75
2022-09-03T23:51:04.074Z,11.72
2022-09-03T23:56:38.183Z,11.68
